Terminal Aerodrome Forecast
Issued by NWS

Current Version | Previous Version | Graphics & Text | Print | Product List | Glossary On
Versions: 1 2 3 4 5 6 7 8 9 10 11 12 13 14
000
FTUS41 KILN 271100
TAFLUK
TAF
KLUK 271134Z 2712/2812 VRB04KT P6SM SCT040
     FM271400 35010KT P6SM BKN040
     FM272000 32012G20KT P6SM BKN045
     FM280000 32008KT P6SM FEW045
     FM281100 35007KT P6SM SCT035=

USA.gov is the U.S. government's official web portal to all federal, state and local government web resources and services.